Time;durP1;ratioP1;P1;durP2;ratioP2;P2;SDS_P1;SDS_P2;PMS_P1;PMS_P2;Temp;Humidity;BMP_temperature;BMP_pressure;BME280_temperature;BME280_humidity;BME280_pressure;Samples;Min_cycle;Max_cycle;Signal;HPM_P1;HPM_P2
2021/06/20 00:02:08;;;;;;;2.93;2.65;;;;;;;22.35;65.45;99590.70;;;;-52
2021/06/20 00:05:08;;;;;;;2.85;2.65;;;;;;;22.34;65.46;99585.98;;;;-51
2021/06/20 00:08:08;;;;;;;2.76;2.56;;;;;;;22.34;65.42;99581.03;;;;-51
2021/06/20 00:11:08;;;;;;;2.91;2.67;;;;;;;22.33;65.49;99578.11;;;;-51
2021/06/20 00:14:08;;;;;;;2.75;2.55;;;;;;;22.33;65.42;99580.79;;;;-52
2021/06/20 00:17:08;;;;;;;2.78;2.58;;;;;;;22.33;65.46;99575.41;;;;-51
2021/06/20 00:20:08;;;;;;;2.89;2.58;;;;;;;22.33;65.50;99585.69;;;;-51
2021/06/20 00:23:08;;;;;;;2.80;2.60;;;;;;;22.33;65.47;99591.82;;;;-51
2021/06/20 00:26:08;;;;;;;2.65;2.45;;;;;;;22.32;65.46;99595.02;;;;-51
2021/06/20 00:29:08;;;;;;;2.77;2.57;;;;;;;22.32;65.47;99614.68;;;;-52
2021/06/20 00:32:08;;;;;;;2.86;2.65;;;;;;;22.32;65.51;99622.28;;;;-51
2021/06/20 00:35:08;;;;;;;3.23;2.48;;;;;;;22.32;65.56;99636.73;;;;-51
2021/06/20 00:38:08;;;;;;;3.17;2.46;;;;;;;22.32;65.56;99637.46;;;;-51
2021/06/20 00:41:08;;;;;;;3.20;2.37;;;;;;;22.32;65.54;99648.98;;;;-51
2021/06/20 00:44:08;;;;;;;2.77;2.57;;;;;;;22.31;65.52;99653.16;;;;-59
2021/06/20 00:47:08;;;;;;;2.72;2.52;;;;;;;22.31;65.54;99654.80;;;;-52
2021/06/20 00:50:08;;;;;;;2.87;2.53;;;;;;;22.30;65.54;99663.35;;;;-52
2021/06/20 00:53:09;;;;;;;2.73;2.53;;;;;;;22.31;65.56;99677.49;;;;-51
2021/06/20 00:56:08;;;;;;;2.63;2.43;;;;;;;22.30;65.58;99665.16;;;;-51
2021/06/20 00:59:08;;;;;;;2.69;2.49;;;;;;;22.29;65.65;99664.78;;;;-55
2021/06/20 01:02:08;;;;;;;2.59;2.39;;;;;;;22.30;65.61;99657.33;;;;-52
2021/06/20 01:05:08;;;;;;;3.02;2.72;;;;;;;22.30;65.60;99666.05;;;;-52
2021/06/20 01:08:08;;;;;;;2.73;2.53;;;;;;;22.29;65.63;99676.13;;;;-51
2021/06/20 01:11:08;;;;;;;2.65;2.45;;;;;;;22.28;65.63;99669.27;;;;-52
2021/06/20 01:14:08;;;;;;;2.67;2.47;;;;;;;22.29;65.58;99679.48;;;;-52
2021/06/20 01:17:08;;;;;;;2.57;2.37;;;;;;;22.28;65.58;99679.64;;;;-52
2021/06/20 01:20:08;;;;;;;2.61;2.41;;;;;;;22.28;65.61;99684.77;;;;-52
2021/06/20 01:23:08;;;;;;;2.60;2.40;;;;;;;22.29;65.61;99695.00;;;;-52
2021/06/20 01:26:08;;;;;;;2.69;2.49;;;;;;;22.28;65.64;99705.84;;;;-52
2021/06/20 01:29:09;;;;;;;2.73;2.52;;;;;;;22.27;65.66;99704.55;;;;-52
2021/06/20 01:32:08;;;;;;;2.83;2.63;;;;;;;22.28;65.63;99714.27;;;;-51
2021/06/20 01:35:08;;;;;;;2.46;2.26;;;;;;;22.28;65.63;99730.50;;;;-52
2021/06/20 01:38:08;;;;;;;2.55;2.35;;;;;;;22.27;65.65;99729.13;;;;-51
2021/06/20 01:41:08;;;;;;;2.81;2.47;;;;;;;22.28;65.65;99746.09;;;;-52
2021/06/20 01:44:08;;;;;;;2.79;2.55;;;;;;;22.27;65.64;99751.59;;;;-51
2021/06/20 01:47:08;;;;;;;2.60;2.40;;;;;;;22.27;65.63;99765.86;;;;-52
2021/06/20 01:50:08;;;;;;;2.60;2.40;;;;;;;22.27;65.70;99769.70;;;;-59
2021/06/20 01:53:08;;;;;;;2.69;2.49;;;;;;;22.26;65.68;99778.69;;;;-58
2021/06/20 01:56:08;;;;;;;2.76;2.56;;;;;;;22.26;65.66;99789.70;;;;-52
2021/06/20 01:59:08;;;;;;;2.60;2.40;;;;;;;22.26;65.72;99791.52;;;;-51
2021/06/20 02:02:08;;;;;;;2.63;2.43;;;;;;;22.26;65.68;99804.48;;;;-51
2021/06/20 02:05:08;;;;;;;2.67;2.47;;;;;;;22.25;65.69;99810.06;;;;-51
2021/06/20 02:08:08;;;;;;;2.71;2.51;;;;;;;22.25;65.68;99813.15;;;;-51
2021/06/20 02:11:09;;;;;;;2.93;2.51;;;;;;;22.25;65.65;99813.33;;;;-52
2021/06/20 02:14:08;;;;;;;2.53;2.33;;;;;;;22.25;65.72;99809.41;;;;-52
2021/06/20 02:17:08;;;;;;;2.70;2.50;;;;;;;22.25;65.70;99810.31;;;;-52
2021/06/20 02:20:08;;;;;;;2.65;2.45;;;;;;;22.25;65.70;99806.72;;;;-51
2021/06/20 02:23:08;;;;;;;2.59;2.38;;;;;;;22.24;65.74;99798.13;;;;-52
2021/06/20 02:26:08;;;;;;;2.56;2.32;;;;;;;22.24;65.74;99793.97;;;;-52
2021/06/20 02:29:08;;;;;;;2.55;2.35;;;;;;;22.24;65.71;99797.48;;;;-51
2021/06/20 02:32:08;;;;;;;2.59;2.39;;;;;;;22.24;65.68;99815.21;;;;-51
2021/06/20 02:35:08;;;;;;;2.48;2.28;;;;;;;22.24;65.70;99825.83;;;;-51
2021/06/20 02:38:08;;;;;;;2.51;2.31;;;;;;;22.24;65.73;99826.39;;;;-52
2021/06/20 02:41:08;;;;;;;2.47;2.27;;;;;;;22.24;65.73;99834.15;;;;-52
2021/06/20 02:44:08;;;;;;;2.59;2.39;;;;;;;22.24;65.67;99824.68;;;;-52
2021/06/20 02:47:08;;;;;;;3.19;2.34;;;;;;;22.23;65.67;99823.39;;;;-51
2021/06/20 02:50:08;;;;;;;2.49;2.29;;;;;;;22.23;65.71;99818.66;;;;-51
2021/06/20 02:53:08;;;;;;;2.59;2.39;;;;;;;22.23;65.73;99834.73;;;;-51
2021/06/20 02:56:08;;;;;;;2.42;2.22;;;;;;;22.23;65.74;99844.34;;;;-51
2021/06/20 02:59:08;;;;;;;2.50;2.30;;;;;;;22.22;65.72;99840.58;;;;-52
2021/06/20 03:02:08;;;;;;;2.44;2.24;;;;;;;22.22;65.63;99830.12;;;;-51
2021/06/20 03:05:08;;;;;;;2.58;2.38;;;;;;;22.23;65.75;99830.47;;;;-52
2021/06/20 03:08:08;;;;;;;2.50;2.30;;;;;;;22.22;65.67;99830.62;;;;-58
2021/06/20 03:11:08;;;;;;;2.50;2.30;;;;;;;22.22;65.72;99827.04;;;;-58
2021/06/20 03:14:08;;;;;;;2.51;2.31;;;;;;;22.22;65.68;99831.43;;;;-52
2021/06/20 03:17:08;;;;;;;2.53;2.33;;;;;;;22.22;65.72;99858.69;;;;-51
2021/06/20 03:20:08;;;;;;;2.37;2.20;;;;;;;22.22;65.69;99870.13;;;;-51
2021/06/20 03:23:11;;;;;;;2.42;2.22;;;;;;;22.21;65.70;99873.66;;;;-59
2021/06/20 03:26:08;;;;;;;2.65;2.45;;;;;;;22.22;65.72;99884.98;;;;-58
2021/06/20 03:29:08;;;;;;;2.51;2.31;;;;;;;22.22;65.65;99882.14;;;;-52
2021/06/20 03:32:08;;;;;;;2.55;2.35;;;;;;;22.22;65.71;99896.58;;;;-51
2021/06/20 03:35:07;;;;;;;2.53;2.33;;;;;;;22.21;65.73;99909.83;;;;-52
2021/06/20 03:38:08;;;;;;;2.61;2.41;;;;;;;22.21;65.71;99920.92;;;;-54
2021/06/20 03:41:08;;;;;;;2.49;2.28;;;;;;;22.22;65.65;99922.63;;;;-52
2021/06/20 03:44:08;;;;;;;2.49;2.29;;;;;;;22.21;65.72;99911.63;;;;-51
2021/06/20 03:47:08;;;;;;;2.29;2.11;;;;;;;22.20;65.66;99903.39;;;;-58
2021/06/20 03:50:08;;;;;;;2.45;2.25;;;;;;;22.20;65.73;99904.10;;;;-58
2021/06/20 03:53:08;;;;;;;2.50;2.24;;;;;;;22.21;65.71;99901.99;;;;-55
2021/06/20 03:56:08;;;;;;;2.55;2.35;;;;;;;22.20;65.74;99898.72;;;;-51
2021/06/20 03:59:09;;;;;;;2.81;2.55;;;;;;;22.20;65.72;99901.67;;;;-52
2021/06/20 04:02:08;;;;;;;2.47;2.27;;;;;;;22.20;65.70;99898.88;;;;-55
2021/06/20 04:05:07;;;;;;;2.53;2.33;;;;;;;22.20;65.70;99906.31;;;;-51
2021/06/20 04:08:08;;;;;;;2.47;2.27;;;;;;;22.20;65.71;99905.00;;;;-56
2021/06/20 04:11:08;;;;;;;2.50;2.30;;;;;;;22.20;65.73;99904.28;;;;-54
2021/06/20 04:14:08;;;;;;;2.47;2.27;;;;;;;22.19;65.72;99904.04;;;;-54
2021/06/20 04:17:08;;;;;;;2.43;2.23;;;;;;;22.19;65.73;99899.72;;;;-52
2021/06/20 04:20:10;;;;;;;2.61;2.41;;;;;;;22.19;65.60;99895.89;;;;-52
2021/06/20 04:23:09;;;;;;;2.57;2.37;;;;;;;22.18;65.68;99901.13;;;;-59
2021/06/20 04:26:08;;;;;;;2.49;2.29;;;;;;;22.19;65.70;99902.34;;;;-51
2021/06/20 04:29:08;;;;;;;2.45;2.25;;;;;;;22.19;65.68;99901.61;;;;-51
2021/06/20 04:32:08;;;;;;;2.44;2.24;;;;;;;22.18;65.70;99903.41;;;;-58
2021/06/20 04:35:08;;;;;;;2.43;2.23;;;;;;;22.18;65.66;99910.82;;;;-58
2021/06/20 04:38:08;;;;;;;2.77;2.39;;;;;;;22.18;65.66;99919.09;;;;-52
2021/06/20 04:41:12;;;;;;;2.39;2.19;;;;;;;22.18;65.65;99923.33;;;;-51
2021/06/20 04:44:42;;;;;;;2.29;2.18;;;;;;;22.18;65.65;99919.63;;;;-52
2021/06/20 04:47:08;;;;;;;2.41;2.21;;;;;;;22.18;65.72;99927.58;;;;-51
2021/06/20 04:50:08;;;;;;;2.30;2.10;;;;;;;22.18;65.71;99930.73;;;;-55
2021/06/20 04:53:08;;;;;;;2.47;2.18;;;;;;;22.18;65.70;99940.86;;;;-59
2021/06/20 04:56:08;;;;;;;2.51;2.31;;;;;;;22.18;65.69;99944.38;;;;-58
2021/06/20 04:59:08;;;;;;;2.37;2.17;;;;;;;22.17;65.67;99937.53;;;;-58
2021/06/20 05:02:08;;;;;;;2.33;2.13;;;;;;;22.18;65.66;99937.84;;;;-58
2021/06/20 05:05:07;;;;;;;2.45;2.25;;;;;;;22.18;65.67;99932.47;;;;-58
2021/06/20 05:08:08;;;;;;;2.32;2.12;;;;;;;22.18;65.67;99929.36;;;;-55
2021/06/20 05:11:08;;;;;;;2.42;2.22;;;;;;;22.17;65.57;99918.92;;;;-51
2021/06/20 05:14:08;;;;;;;2.51;2.30;;;;;;;22.18;65.64;99921.36;;;;-52
2021/06/20 05:17:08;;;;;;;2.47;2.27;;;;;;;22.17;65.72;99946.18;;;;-51
2021/06/20 05:20:07;;;;;;;2.43;2.23;;;;;;;22.17;65.59;99950.59;;;;-52
2021/06/20 05:23:08;;;;;;;2.57;2.37;;;;;;;22.17;65.63;99960.63;;;;-52
2021/06/20 05:26:08;;;;;;;2.25;2.09;;;;;;;22.17;65.69;99955.83;;;;-58
2021/06/20 05:29:08;;;;;;;2.39;2.19;;;;;;;22.17;65.61;99955.16;;;;-58
2021/06/20 05:32:08;;;;;;;2.23;2.10;;;;;;;22.17;65.65;99956.16;;;;-59
2021/06/20 05:35:08;;;;;;;2.40;2.20;;;;;;;22.16;65.61;99952.47;;;;-58
2021/06/20 05:38:08;;;;;;;2.13;2.01;;;;;;;22.17;65.61;99964.31;;;;-51
2021/06/20 05:41:08;;;;;;;2.33;2.15;;;;;;;22.17;65.62;99953.30;;;;-54
2021/06/20 05:44:08;;;;;;;2.29;2.09;;;;;;;22.16;65.62;99946.86;;;;-54
2021/06/20 05:47:08;;;;;;;2.31;2.11;;;;;;;22.16;65.64;99945.70;;;;-58
2021/06/20 05:50:08;;;;;;;2.31;2.11;;;;;;;22.16;65.63;99948.55;;;;-58
2021/06/20 05:53:08;;;;;;;2.11;2.01;;;;;;;22.16;65.60;99945.55;;;;-53
2021/06/20 05:56:08;;;;;;;2.10;2.00;;;;;;;22.16;65.66;99945.13;;;;-51
2021/06/20 05:59:08;;;;;;;2.29;2.10;;;;;;;22.16;65.60;99945.78;;;;-52
2021/06/20 06:02:08;;;;;;;2.49;2.29;;;;;;;22.16;65.61;99944.73;;;;-52
2021/06/20 06:05:08;;;;;;;2.17;2.00;;;;;;;22.16;65.62;99946.20;;;;-51
2021/06/20 06:08:08;;;;;;;2.21;2.05;;;;;;;22.16;65.62;99964.06;;;;-54
2021/06/20 06:11:08;;;;;;;2.47;2.27;;;;;;;22.16;65.60;99961.54;;;;-55
2021/06/20 06:14:08;;;;;;;2.38;2.18;;;;;;;22.16;65.60;99957.13;;;;-55
2021/06/20 06:17:08;;;;;;;2.19;2.09;;;;;;;22.16;65.58;99957.38;;;;-55
2021/06/20 06:20:07;;;;;;;2.27;2.10;;;;;;;22.16;65.64;99954.44;;;;-55
2021/06/20 06:23:09;;;;;;;2.22;2.02;;;;;;;22.15;65.58;99956.81;;;;-56
2021/06/20 06:26:08;;;;;;;2.14;2.02;;;;;;;22.16;65.59;99968.47;;;;-54
2021/06/20 06:29:08;;;;;;;2.21;2.07;;;;;;;22.15;65.63;99967.27;;;;-54
2021/06/20 06:32:08;;;;;;;2.23;2.03;;;;;;;22.15;65.57;99966.14;;;;-56
2021/06/20 06:35:07;;;;;;;2.05;1.85;;;;;;;22.15;65.60;99965.72;;;;-55
2021/06/20 06:38:08;;;;;;;2.08;1.98;;;;;;;22.15;65.66;99968.17;;;;-55
2021/06/20 06:41:08;;;;;;;2.15;1.95;;;;;;;22.15;65.52;99971.36;;;;-54
2021/06/20 06:44:08;;;;;;;2.08;1.98;;;;;;;22.15;65.54;99967.35;;;;-55
2021/06/20 06:47:08;;;;;;;2.10;2.00;;;;;;;22.15;65.54;99969.89;;;;-55
2021/06/20 06:50:08;;;;;;;2.31;2.11;;;;;;;22.15;65.61;99970.94;;;;-51
2021/06/20 06:53:08;;;;;;;2.17;1.97;;;;;;;22.15;65.54;99966.47;;;;-51
2021/06/20 06:56:07;;;;;;;2.28;2.12;;;;;;;22.15;65.52;99968.09;;;;-52
2021/06/20 06:59:08;;;;;;;2.10;2.00;;;;;;;22.14;65.54;99970.13;;;;-51
2021/06/20 07:02:09;;;;;;;2.34;2.14;;;;;;;22.15;65.54;99967.03;;;;-51
2021/06/20 07:05:08;;;;;;;2.29;2.10;;;;;;;22.14;65.55;99976.09;;;;-51
2021/06/20 07:08:08;;;;;;;2.40;2.20;;;;;;;22.14;65.60;99968.27;;;;-51
2021/06/20 07:11:07;;;;;;;2.09;1.99;;;;;;;22.15;65.57;99957.73;;;;-52
2021/06/20 07:14:08;;;;;;;2.23;2.10;;;;;;;22.15;65.57;99957.65;;;;-51
2021/06/20 07:17:08;;;;;;;2.05;1.92;;;;;;;22.15;65.51;99967.10;;;;-52
2021/06/20 07:20:09;;;;;;;1.93;1.83;;;;;;;22.15;65.51;99962.63;;;;-58
2021/06/20 07:23:08;;;;;;;2.20;2.00;;;;;;;22.14;65.57;99948.41;;;;-58
2021/06/20 07:26:07;;;;;;;2.07;1.97;;;;;;;22.15;65.54;99963.61;;;;-58
2021/06/20 07:29:08;;;;;;;2.10;2.00;;;;;;;22.14;65.54;99976.44;;;;-54
2021/06/20 07:32:08;;;;;;;2.11;1.91;;;;;;;22.14;65.54;99998.70;;;;-55
2021/06/20 07:35:08;;;;;;;2.07;1.97;;;;;;;22.15;65.51;100013.89;;;;-52
2021/06/20 07:38:08;;;;;;;2.09;1.92;;;;;;;22.14;65.53;100008.48;;;;-58
2021/06/20 07:41:07;;;;;;;2.09;1.99;;;;;;;22.14;65.50;100000.32;;;;-51
2021/06/20 07:44:08;;;;;;;2.08;1.90;;;;;;;22.14;65.55;99994.45;;;;-51
2021/06/20 07:47:08;;;;;;;1.92;1.82;;;;;;;22.14;65.55;99985.23;;;;-51
2021/06/20 07:50:07;;;;;;;2.02;1.91;;;;;;;22.14;65.56;99982.05;;;;-58
2021/06/20 07:53:08;;;;;;;2.06;1.96;;;;;;;22.14;65.53;99989.07;;;;-58
2021/06/20 07:56:08;;;;;;;1.91;1.81;;;;;;;22.14;65.50;100003.91;;;;-51
2021/06/20 07:59:08;;;;;;;2.07;1.97;;;;;;;22.13;65.50;99991.77;;;;-51
2021/06/20 08:02:08;;;;;;;1.87;1.77;;;;;;;22.13;65.51;99989.16;;;;-52
2021/06/20 08:05:08;;;;;;;3.13;2.00;;;;;;;22.14;65.45;99981.15;;;;-55
2021/06/20 08:08:08;;;;;;;2.09;1.98;;;;;;;22.13;65.47;99966.40;;;;-54
2021/06/20 08:11:08;;;;;;;2.05;1.93;;;;;;;22.13;65.47;99962.72;;;;-51
2021/06/20 08:14:08;;;;;;;2.31;2.07;;;;;;;22.14;65.55;99961.64;;;;-55
2021/06/20 08:17:09;;;;;;;2.49;2.07;;;;;;;22.15;65.62;99953.80;;;;-50
2021/06/20 08:20:07;;;;;;;6.26;2.15;;;;;;;22.17;65.56;99952.48;;;;-52
2021/06/20 08:23:08;;;;;;;4.75;2.09;;;;;;;22.18;65.46;99950.81;;;;-59
2021/06/20 08:26:08;;;;;;;2.27;1.97;;;;;;;22.20;65.39;99954.54;;;;-60
2021/06/20 08:29:07;;;;;;;2.15;1.95;;;;;;;22.20;65.52;99955.36;;;;-52
2021/06/20 08:32:08;;;;;;;3.13;1.97;;;;;;;22.22;65.62;99953.55;;;;-56
2021/06/20 08:35:07;;;;;;;2.53;2.05;;;;;;;22.23;65.54;99957.58;;;;-58
2021/06/20 08:38:08;;;;;;;2.23;1.99;;;;;;;22.24;65.53;99954.77;;;;-51
2021/06/20 08:41:08;;;;;;;2.11;1.93;;;;;;;22.25;65.75;99961.87;;;;-51
2021/06/20 08:44:07;;;;;;;3.69;2.19;;;;;;;22.28;65.72;99958.48;;;;-51
2021/06/20 08:47:08;;;;;;;2.16;1.96;;;;;;;22.28;65.44;99950.65;;;;-52
2021/06/20 08:50:07;;;;;;;2.63;1.90;;;;;;;22.28;65.42;99936.77;;;;-52
2021/06/20 08:53:08;;;;;;;2.82;1.99;;;;;;;22.27;65.48;99925.11;;;;-57
2021/06/20 08:56:08;;;;;;;4.89;2.07;;;;;;;22.29;65.79;99945.02;;;;-52
2021/06/20 08:59:08;;;;;;;3.72;2.01;;;;;;;22.30;65.84;99954.87;;;;-59
2021/06/20 09:02:08;;;;;;;4.03;1.87;;;;;;;22.32;65.77;99953.77;;;;-57
2021/06/20 09:05:07;;;;;;;2.34;1.91;;;;;;;22.34;65.80;99957.67;;;;-52
2021/06/20 09:08:08;;;;;;;2.74;2.01;;;;;;;22.35;65.78;99957.50;;;;-53
2021/06/20 09:11:08;;;;;;;2.73;1.95;;;;;;;22.36;65.83;99966.22;;;;-50
2021/06/20 09:14:07;;;;;;;3.37;1.93;;;;;;;22.37;65.91;99974.11;;;;-57
2021/06/20 09:17:08;;;;;;;2.50;1.87;;;;;;;22.38;65.83;99974.84;;;;-54
2021/06/20 09:20:08;;;;;;;2.13;1.91;;;;;;;22.39;65.96;99976.71;;;;-51
2021/06/20 09:23:08;;;;;;;4.14;2.05;;;;;;;22.41;65.86;99965.64;;;;-55
2021/06/20 09:26:08;;;;;;;2.64;1.83;;;;;;;22.42;65.76;99953.14;;;;-57
2021/06/20 09:29:07;;;;;;;2.72;2.06;;;;;;;22.43;65.94;99948.23;;;;-53
2021/06/20 09:32:08;;;;;;;2.25;1.98;;;;;;;22.44;65.87;99936.22;;;;-55
2021/06/20 09:35:07;;;;;;;2.21;2.00;;;;;;;22.44;65.99;99931.88;;;;-56
2021/06/20 09:38:07;;;;;;;2.25;2.07;;;;;;;22.45;65.98;99934.23;;;;-50
2021/06/20 09:41:08;;;;;;;2.37;2.00;;;;;;;22.45;65.97;99935.48;;;;-50
2021/06/20 09:44:07;;;;;;;4.05;1.83;;;;;;;22.47;65.91;99924.50;;;;-52
2021/06/20 09:47:08;;;;;;;2.14;1.91;;;;;;;22.48;65.92;99907.25;;;;-60
2021/06/20 09:50:08;;;;;;;2.34;1.93;;;;;;;22.49;65.92;99904.28;;;;-60
2021/06/20 09:53:07;;;;;;;3.42;2.05;;;;;;;22.50;65.96;99898.17;;;;-49
2021/06/20 09:56:08;;;;;;;2.47;1.97;;;;;;;22.51;65.97;99888.27;;;;-52
2021/06/20 09:59:08;;;;;;;2.19;1.93;;;;;;;22.51;65.97;99889.90;;;;-52
2021/06/20 10:02:08;;;;;;;3.87;2.19;;;;;;;22.53;65.92;99902.37;;;;-57
2021/06/20 10:05:08;;;;;;;2.95;1.97;;;;;;;22.54;65.93;99901.53;;;;-51
2021/06/20 10:08:07;;;;;;;2.52;2.03;;;;;;;22.55;65.85;99887.80;;;;-52
2021/06/20 10:11:08;;;;;;;3.40;1.95;;;;;;;22.55;65.93;99886.33;;;;-51
2021/06/20 10:14:07;;;;;;;3.05;2.00;;;;;;;22.55;65.91;99881.18;;;;-51
2021/06/20 10:17:08;;;;;;;2.25;1.90;;;;;;;22.55;65.83;99885.58;;;;-51
2021/06/20 10:20:08;;;;;;;2.10;1.90;;;;;;;22.57;66.04;99894.29;;;;-53
2021/06/20 10:23:07;;;;;;;3.61;2.01;;;;;;;22.57;65.66;99894.13;;;;-53
2021/06/20 10:26:08;;;;;;;4.29;2.05;;;;;;;22.57;65.73;99877.81;;;;-53
2021/06/20 10:29:07;;;;;;;3.15;1.99;;;;;;;22.56;65.82;99861.23;;;;-54
2021/06/20 10:32:08;;;;;;;2.77;1.88;;;;;;;22.56;65.72;99858.22;;;;-57
2021/06/20 10:35:07;;;;;;;2.51;1.83;;;;;;;22.56;65.70;99859.45;;;;-57
2021/06/20 10:38:07;;;;;;;2.01;1.89;;;;;;;22.55;65.68;99865.81;;;;-57
2021/06/20 10:41:09;;;;;;;2.39;1.92;;;;;;;22.55;65.63;99855.03;;;;-56
2021/06/20 10:44:07;;;;;;;2.27;1.82;;;;;;;22.56;65.58;99855.59;;;;-57
2021/06/20 10:47:08;;;;;;;1.87;1.77;;;;;;;22.55;65.51;99848.52;;;;-54
2021/06/20 10:50:07;;;;;;;3.07;1.91;;;;;;;22.55;65.51;99841.40;;;;-54
2021/06/20 10:53:07;;;;;;;2.17;1.80;;;;;;;22.55;65.48;99838.48;;;;-58
2021/06/20 10:56:08;;;;;;;4.33;2.05;;;;;;;22.54;65.53;99838.89;;;;-54
2021/06/20 10:59:07;;;;;;;4.12;2.01;;;;;;;22.55;65.76;99835.13;;;;-51
2021/06/20 11:02:08;;;;;;;3.82;2.00;;;;;;;22.56;65.81;99830.28;;;;-54
2021/06/20 11:05:07;;;;;;;2.57;1.88;;;;;;;22.55;65.63;99834.70;;;;-52
2021/06/20 11:08:07;;;;;;;2.31;1.91;;;;;;;22.55;65.55;99836.25;;;;-51
2021/06/20 11:11:08;;;;;;;6.08;2.00;;;;;;;22.55;65.55;99827.52;;;;-52
2021/06/20 11:14:08;;;;;;;2.89;2.09;;;;;;;22.55;65.51;99823.27;;;;-54
2021/06/20 11:17:08;;;;;;;2.61;2.03;;;;;;;22.55;65.44;99818.12;;;;-53
2021/06/20 11:20:07;;;;;;;3.00;2.02;;;;;;;22.55;65.39;99816.99;;;;-52
2021/06/20 11:23:07;;;;;;;2.55;1.93;;;;;;;22.55;65.42;99816.83;;;;-52
2021/06/20 11:26:08;;;;;;;2.47;1.80;;;;;;;22.55;65.39;99816.27;;;;-52
2021/06/20 11:29:07;;;;;;;2.67;1.96;;;;;;;22.54;65.34;99813.33;;;;-50
2021/06/20 11:32:08;;;;;;;3.24;2.11;;;;;;;22.54;65.31;99806.09;;;;-52
2021/06/20 11:35:09;;;;;;;4.16;2.09;;;;;;;22.53;65.33;99802.80;;;;-52
2021/06/20 11:38:07;;;;;;;2.17;1.95;;;;;;;22.53;65.31;99798.39;;;;-50
2021/06/20 11:41:08;;;;;;;2.75;1.91;;;;;;;22.54;65.28;99794.71;;;;-52
2021/06/20 11:44:07;;;;;;;3.33;1.95;;;;;;;22.53;65.24;99788.28;;;;-52
2021/06/20 11:47:08;;;;;;;3.26;1.91;;;;;;;22.53;65.22;99785.58;;;;-52
2021/06/20 11:50:07;;;;;;;2.27;1.78;;;;;;;22.53;65.21;99777.18;;;;-54
2021/06/20 11:53:08;;;;;;;2.59;1.76;;;;;;;22.53;65.24;99770.23;;;;-50
2021/06/20 11:56:08;;;;;;;1.82;1.72;;;;;;;22.53;65.20;99770.31;;;;-55
2021/06/20 11:59:07;;;;;;;2.62;1.90;;;;;;;22.53;65.18;99769.65;;;;-54
2021/06/20 12:02:08;;;;;;;2.10;1.90;;;;;;;22.52;65.18;99762.98;;;;-51
2021/06/20 12:05:07;;;;;;;3.34;1.90;;;;;;;22.52;65.13;99755.16;;;;-50
2021/06/20 12:08:07;;;;;;;2.79;2.05;;;;;;;22.52;65.12;99757.36;;;;-52
2021/06/20 12:11:08;;;;;;;2.36;1.82;;;;;;;22.52;65.10;99754.58;;;;-54
2021/06/20 12:14:07;;;;;;;2.18;1.85;;;;;;;22.52;65.08;99758.41;;;;-52
2021/06/20 12:17:08;;;;;;;2.07;1.89;;;;;;;22.54;65.39;99757.31;;;;-55
2021/06/20 12:20:07;;;;;;;2.31;1.80;;;;;;;22.54;65.54;99757.58;;;;-64
2021/06/20 12:23:07;;;;;;;6.23;2.05;;;;;;;22.55;65.61;99743.90;;;;-58
2021/06/20 12:26:08;;;;;;;3.52;1.90;;;;;;;22.56;65.69;99741.52;;;;-58
2021/06/20 12:29:07;;;;;;;2.47;1.83;;;;;;;22.57;65.66;99725.73;;;;-52
2021/06/20 12:32:08;;;;;;;2.82;1.90;;;;;;;22.58;65.66;99705.73;;;;-52
2021/06/20 12:35:07;;;;;;;4.85;1.90;;;;;;;22.61;65.71;99699.55;;;;-51
2021/06/20 12:38:07;;;;;;;3.93;1.99;;;;;;;22.62;65.78;99698.37;;;;-60
2021/06/20 12:41:08;;;;;;;2.09;1.82;;;;;;;22.64;65.69;99694.66;;;;-56
2021/06/20 12:44:08;;;;;;;2.39;1.89;;;;;;;22.65;65.86;99690.48;;;;-53
2021/06/20 12:47:08;;;;;;;3.65;1.90;;;;;;;22.65;65.66;99684.28;;;;-53
2021/06/20 12:50:07;;;;;;;2.33;1.85;;;;;;;22.66;65.72;99670.28;;;;-57
2021/06/20 12:53:08;;;;;;;3.45;2.02;;;;;;;22.66;65.87;99663.84;;;;-56
2021/06/20 12:56:08;;;;;;;4.68;2.00;;;;;;;22.67;65.74;99656.05;;;;-54
2021/06/20 12:59:07;;;;;;;3.69;1.83;;;;;;;22.68;65.77;99643.69;;;;-60
2021/06/20 13:02:08;;;;;;;3.36;2.01;;;;;;;22.68;65.77;99634.56;;;;-53
2021/06/20 13:05:08;;;;;;;4.21;2.03;;;;;;;22.69;65.74;99633.80;;;;-51
2021/06/20 13:08:08;;;;;;;3.76;1.87;;;;;;;22.70;65.83;99633.30;;;;-53
2021/06/20 13:11:08;;;;;;;3.93;2.02;;;;;;;22.72;65.58;99635.46;;;;-55
2021/06/20 13:14:07;;;;;;;4.59;2.01;;;;;;;22.71;65.60;99629.20;;;;-57
2021/06/20 13:17:07;;;;;;;2.79;2.09;;;;;;;22.70;65.61;99625.70;;;;-53
2021/06/20 13:20:08;;;;;;;3.12;1.89;;;;;;;22.70;65.57;99625.45;;;;-52
2021/06/20 13:23:09;;;;;;;2.23;1.90;;;;;;;22.69;65.56;99626.86;;;;-55
2021/06/20 13:26:08;;;;;;;4.09;1.83;;;;;;;22.68;65.47;99622.71;;;;-53
2021/06/20 13:29:07;;;;;;;2.19;1.85;;;;;;;22.69;65.63;99616.57;;;;-51
2021/06/20 13:32:07;;;;;;;4.72;2.03;;;;;;;22.70;65.62;99606.52;;;;-51
2021/06/20 13:35:08;;;;;;;2.61;1.87;;;;;;;22.71;65.68;99610.25;;;;-60
2021/06/20 13:38:08;;;;;;;2.46;1.75;;;;;;;22.72;65.60;99611.10;;;;-60
2021/06/20 13:41:07;;;;;;;4.10;1.88;;;;;;;22.72;65.71;99603.20;;;;-58
2021/06/20 13:44:07;;;;;;;3.07;1.86;;;;;;;22.75;65.66;99599.64;;;;-52
2021/06/20 13:47:07;;;;;;;2.23;1.81;;;;;;;22.74;65.63;99593.25;;;;-52
2021/06/20 13:50:08;;;;;;;2.31;1.81;;;;;;;22.76;65.57;99590.13;;;;-53
2021/06/20 13:53:07;;;;;;;4.21;2.00;;;;;;;22.77;65.63;99590.36;;;;-58
2021/06/20 13:56:07;;;;;;;1.99;1.80;;;;;;;22.77;65.69;99593.28;;;;-53
2021/06/20 13:59:07;;;;;;;3.49;1.99;;;;;;;22.78;65.53;99583.38;;;;-52
2021/06/20 14:02:07;;;;;;;4.39;1.82;;;;;;;22.79;65.70;99579.63;;;;-57
2021/06/20 14:05:07;;;;;;;2.64;1.99;;;;;;;22.78;65.47;99574.22;;;;-59
2021/06/20 14:08:07;;;;;;;4.96;2.29;;;;;;;22.75;65.48;99563.36;;;;-59
2021/06/20 14:11:07;;;;;;;3.35;2.09;;;;;;;22.76;65.83;99557.11;;;;-58
2021/06/20 14:14:07;;;;;;;4.06;2.23;;;;;;;22.76;65.81;99547.98;;;;-55
2021/06/20 14:17:07;;;;;;;5.25;2.15;;;;;;;22.76;65.67;99539.88;;;;-52
2021/06/20 14:20:08;;;;;;;3.03;2.15;;;;;;;22.75;65.79;99533.45;;;;-49
2021/06/20 14:23:07;;;;;;;5.99;2.18;;;;;;;22.76;65.80;99534.98;;;;-53
2021/06/20 14:26:07;;;;;;;3.17;2.20;;;;;;;22.76;65.78;99536.13;;;;-49
2021/06/20 14:29:07;;;;;;;3.19;2.24;;;;;;;22.77;65.77;99551.15;;;;-52
2021/06/20 14:32:08;;;;;;;4.05;2.39;;;;;;;22.77;65.77;99563.47;;;;-60
2021/06/20 14:35:08;;;;;;;7.65;2.53;;;;;;;22.77;65.89;99573.19;;;;-51
2021/06/20 14:38:07;;;;;;;4.45;2.12;;;;;;;22.81;65.94;99591.32;;;;-46
2021/06/20 14:41:08;;;;;;;5.22;2.35;;;;;;;22.84;66.13;99604.42;;;;-51
2021/06/20 14:44:09;;;;;;;3.87;2.39;;;;;;;22.86;66.12;99597.59;;;;-57
2021/06/20 14:47:07;;;;;;;5.57;2.29;;;;;;;22.87;65.95;99570.69;;;;-53
2021/06/20 14:50:08;;;;;;;3.73;2.33;;;;;;;22.87;65.89;99554.42;;;;-52
2021/06/20 14:53:07;;;;;;;3.03;2.27;;;;;;;22.88;66.00;99539.84;;;;-54
2021/06/20 14:56:07;;;;;;;5.37;2.40;;;;;;;22.89;65.89;99536.81;;;;-51
2021/06/20 14:59:07;;;;;;;4.01;2.19;;;;;;;22.89;65.90;99529.73;;;;-52
2021/06/20 15:02:07;;;;;;;5.21;2.33;;;;;;;22.90;65.92;99521.94;;;;-53
2021/06/20 15:05:08;;;;;;;5.39;2.30;;;;;;;22.90;65.89;99532.56;;;;-52
2021/06/20 15:08:07;;;;;;;4.77;2.43;;;;;;;22.91;65.91;99540.52;;;;-51
2021/06/20 15:11:07;;;;;;;2.85;2.03;;;;;;;22.91;65.84;99542.42;;;;-49
2021/06/20 15:14:08;;;;;;;6.64;2.34;;;;;;;22.91;65.88;99554.92;;;;-48
2021/06/20 15:17:07;;;;;;;5.50;2.27;;;;;;;22.92;65.75;99555.78;;;;-50
2021/06/20 15:20:08;;;;;;;3.47;2.30;;;;;;;22.93;65.59;99546.62;;;;-50
2021/06/20 15:23:07;;;;;;;5.68;2.38;;;;;;;22.91;65.67;99534.91;;;;-49
2021/06/20 15:26:07;;;;;;;5.18;2.14;;;;;;;22.91;65.78;99529.09;;;;-50
2021/06/20 15:29:07;;;;;;;6.51;2.31;;;;;;;22.92;65.75;99531.30;;;;-54
2021/06/20 15:32:07;;;;;;;3.27;2.19;;;;;;;22.92;65.84;99526.72;;;;-51
2021/06/20 15:35:07;;;;;;;4.76;2.41;;;;;;;22.91;65.79;99515.63;;;;-52
2021/06/20 15:38:07;;;;;;;4.53;2.19;;;;;;;22.91;65.91;99510.96;;;;-51
2021/06/20 15:41:07;;;;;;;4.02;2.21;;;;;;;22.93;65.85;99496.13;;;;-52
2021/06/20 15:44:09;;;;;;;3.97;2.34;;;;;;;22.92;65.71;99485.94;;;;-52
2021/06/20 15:47:07;;;;;;;3.83;2.20;;;;;;;22.90;65.72;99478.05;;;;-53
2021/06/20 15:50:07;;;;;;;3.87;2.34;;;;;;;22.90;65.60;99465.78;;;;-55
2021/06/20 15:53:07;;;;;;;5.63;2.37;;;;;;;22.90;65.74;99464.66;;;;-52
2021/06/20 15:56:07;;;;;;;4.13;2.35;;;;;;;22.89;65.84;99459.61;;;;-50
2021/06/20 15:59:07;;;;;;;4.25;2.33;;;;;;;22.88;65.87;99455.62;;;;-47
2021/06/20 16:02:07;;;;;;;4.63;2.25;;;;;;;22.89;65.93;99454.63;;;;-48
2021/06/20 16:05:08;;;;;;;6.02;2.31;;;;;;;22.90;66.03;99451.59;;;;-55
2021/06/20 16:08:07;;;;;;;5.90;2.31;;;;;;;22.91;65.85;99451.58;;;;-54
2021/06/20 16:11:07;;;;;;;4.31;2.35;;;;;;;22.91;65.74;99444.78;;;;-60
2021/06/20 16:14:08;;;;;;;4.84;2.21;;;;;;;22.93;65.80;99438.52;;;;-62
2021/06/20 16:17:07;;;;;;;2.74;2.11;;;;;;;22.94;65.74;99431.81;;;;-61
2021/06/20 16:20:07;;;;;;;3.67;2.31;;;;;;;22.94;65.88;99422.91;;;;-55
2021/06/20 16:23:07;;;;;;;3.64;2.38;;;;;;;22.94;65.71;99422.33;;;;-57
2021/06/20 16:26:07;;;;;;;3.11;2.29;;;;;;;22.94;65.85;99417.24;;;;-58
2021/06/20 16:29:07;;;;;;;4.21;2.17;;;;;;;22.94;65.84;99410.38;;;;-52
2021/06/20 16:32:07;;;;;;;5.74;2.47;;;;;;;22.95;65.88;99414.71;;;;-57
2021/06/20 16:35:08;;;;;;;4.40;2.39;;;;;;;22.96;65.77;99415.02;;;;-56
2021/06/20 16:38:07;;;;;;;4.95;2.23;;;;;;;22.97;65.90;99413.50;;;;-51
2021/06/20 16:41:07;;;;;;;3.33;2.29;;;;;;;22.97;65.73;99416.94;;;;-55
2021/06/20 16:44:07;;;;;;;4.20;2.31;;;;;;;22.97;65.82;99417.73;;;;-57
2021/06/20 16:47:07;;;;;;;3.79;2.31;;;;;;;22.98;65.71;99411.70;;;;-56
2021/06/20 16:50:07;;;;;;;4.83;2.30;;;;;;;22.99;65.76;99414.34;;;;-58
2021/06/20 16:53:07;;;;;;;4.07;2.18;;;;;;;23.00;65.73;99413.28;;;;-60
2021/06/20 16:56:07;;;;;;;3.54;2.39;;;;;;;23.01;65.72;99411.94;;;;-58